sensor_id;sensor_type;location;lat;lon;timestamp;P1;durP1;ratioP1;P2;durP2;ratioP2
35612;SDS011;22054;51.646;7.078;2022-11-27T00:01:52;0.30;;;0.30;;
35612;SDS011;22054;51.646;7.078;2022-11-27T00:04:18;0.30;;;0.30;;
35612;SDS011;22054;51.646;7.078;2022-11-27T00:06:43;0.30;;;0.30;;
35612;SDS011;22054;51.646;7.078;2022-11-27T00:09:10;0.40;;;0.40;;
35612;SDS011;22054;51.646;7.078;2022-11-27T00:11:39;0.30;;;0.30;;
35612;SDS011;22054;51.646;7.078;2022-11-27T00:14:06;0.30;;;0.30;;
35612;SDS011;22054;51.646;7.078;2022-11-27T00:16:35;0.30;;;0.30;;
35612;SDS011;22054;51.646;7.078;2022-11-27T00:19:01;0.30;;;0.30;;
35612;SDS011;22054;51.646;7.078;2022-11-27T00:21:28;0.30;;;0.30;;
35612;SDS011;22054;51.646;7.078;2022-11-27T00:23:59;0.30;;;0.30;;
35612;SDS011;22054;51.646;7.078;2022-11-27T00:26:28;0.40;;;0.40;;
35612;SDS011;22054;51.646;7.078;2022-11-27T00:28:55;0.30;;;0.30;;
35612;SDS011;22054;51.646;7.078;2022-11-27T00:31:22;0.30;;;0.30;;
35612;SDS011;22054;51.646;7.078;2022-11-27T00:33:54;0.30;;;0.30;;
35612;SDS011;22054;51.646;7.078;2022-11-27T00:36:22;0.22;;;0.22;;
35612;SDS011;22054;51.646;7.078;2022-11-27T00:38:48;0.30;;;0.30;;
35612;SDS011;22054;51.646;7.078;2022-11-27T00:41:19;0.30;;;0.30;;
35612;SDS011;22054;51.646;7.078;2022-11-27T00:43:50;0.30;;;0.30;;
35612;SDS011;22054;51.646;7.078;2022-11-27T00:46:19;0.30;;;0.30;;
35612;SDS011;22054;51.646;7.078;2022-11-27T00:48:47;0.40;;;0.40;;
35612;SDS011;22054;51.646;7.078;2022-11-27T00:51:14;0.30;;;0.30;;
35612;SDS011;22054;51.646;7.078;2022-11-27T00:53:42;0.30;;;0.30;;
35612;SDS011;22054;51.646;7.078;2022-11-27T00:56:09;0.20;;;0.20;;
35612;SDS011;22054;51.646;7.078;2022-11-27T00:58:44;0.30;;;0.30;;
35612;SDS011;22054;51.646;7.078;2022-11-27T01:01:24;0.30;;;0.30;;
35612;SDS011;22054;51.646;7.078;2022-11-27T01:03:59;0.20;;;0.20;;
35612;SDS011;22054;51.646;7.078;2022-11-27T01:06:27;0.30;;;0.30;;
35612;SDS011;22054;51.646;7.078;2022-11-27T01:08:54;0.28;;;0.28;;
35612;SDS011;22054;51.646;7.078;2022-11-27T01:11:23;0.20;;;0.20;;
35612;SDS011;22054;51.646;7.078;2022-11-27T01:13:52;0.30;;;0.30;;
35612;SDS011;22054;51.646;7.078;2022-11-27T01:16:22;0.30;;;0.30;;
35612;SDS011;22054;51.646;7.078;2022-11-27T01:18:50;0.20;;;0.20;;
35612;SDS011;22054;51.646;7.078;2022-11-27T01:21:22;0.30;;;0.30;;
35612;SDS011;22054;51.646;7.078;2022-11-27T01:23:49;0.30;;;0.30;;
35612;SDS011;22054;51.646;7.078;2022-11-27T01:26:15;0.30;;;0.30;;
35612;SDS011;22054;51.646;7.078;2022-11-27T01:28:43;0.20;;;0.20;;
35612;SDS011;22054;51.646;7.078;2022-11-27T01:31:17;0.30;;;0.30;;
35612;SDS011;22054;51.646;7.078;2022-11-27T01:33:46;0.20;;;0.20;;
35612;SDS011;22054;51.646;7.078;2022-11-27T01:36:12;0.20;;;0.20;;
35612;SDS011;22054;51.646;7.078;2022-11-27T01:38:40;0.30;;;0.30;;
35612;SDS011;22054;51.646;7.078;2022-11-27T01:41:13;0.30;;;0.30;;
35612;SDS011;22054;51.646;7.078;2022-11-27T01:43:46;0.30;;;0.30;;
35612;SDS011;22054;51.646;7.078;2022-11-27T01:54:29;0.50;;;0.50;;
35612;SDS011;22054;51.646;7.078;2022-11-27T01:57:13;0.20;;;0.20;;
35612;SDS011;22054;51.646;7.078;2022-11-27T01:59:44;0.40;;;0.40;;
35612;SDS011;22054;51.646;7.078;2022-11-27T02:02:12;0.32;;;0.32;;
35612;SDS011;22054;51.646;7.078;2022-11-27T02:04:38;0.40;;;0.40;;
35612;SDS011;22054;51.646;7.078;2022-11-27T02:07:04;0.40;;;0.40;;
35612;SDS011;22054;51.646;7.078;2022-11-27T02:09:30;0.40;;;0.40;;
35612;SDS011;22054;51.646;7.078;2022-11-27T02:29:25;0.40;;;0.40;;
35612;SDS011;22054;51.646;7.078;2022-11-27T02:32:02;0.40;;;0.40;;
35612;SDS011;22054;51.646;7.078;2022-11-27T02:34:58;0.50;;;0.50;;
35612;SDS011;22054;51.646;7.078;2022-11-27T02:37:48;0.40;;;0.40;;
35612;SDS011;22054;51.646;7.078;2022-11-27T02:40:29;0.50;;;0.50;;
35612;SDS011;22054;51.646;7.078;2022-11-27T02:46:04;0.40;;;0.40;;
35612;SDS011;22054;51.646;7.078;2022-11-27T02:48:33;0.50;;;0.50;;
35612;SDS011;22054;51.646;7.078;2022-11-27T02:51:04;0.32;;;0.32;;
35612;SDS011;22054;51.646;7.078;2022-11-27T02:53:32;0.40;;;0.40;;
35612;SDS011;22054;51.646;7.078;2022-11-27T02:56:11;0.47;;;0.47;;
35612;SDS011;22054;51.646;7.078;2022-11-27T02:58:42;0.40;;;0.40;;
35612;SDS011;22054;51.646;7.078;2022-11-27T03:01:11;0.50;;;0.50;;
35612;SDS011;22054;51.646;7.078;2022-11-27T03:03:40;0.50;;;0.50;;
35612;SDS011;22054;51.646;7.078;2022-11-27T03:06:13;0.50;;;0.50;;
35612;SDS011;22054;51.646;7.078;2022-11-27T03:11:19;0.30;;;0.30;;
35612;SDS011;22054;51.646;7.078;2022-11-27T03:13:46;0.50;;;0.50;;
35612;SDS011;22054;51.646;7.078;2022-11-27T03:16:22;0.30;;;0.30;;
35612;SDS011;22054;51.646;7.078;2022-11-27T03:21:51;0.45;;;0.45;;
35612;SDS011;22054;51.646;7.078;2022-11-27T03:24:20;0.38;;;0.38;;
35612;SDS011;22054;51.646;7.078;2022-11-27T03:26:49;0.30;;;0.30;;
35612;SDS011;22054;51.646;7.078;2022-11-27T03:29:26;0.40;;;0.40;;
35612;SDS011;22054;51.646;7.078;2022-11-27T03:32:11;0.40;;;0.40;;
35612;SDS011;22054;51.646;7.078;2022-11-27T03:34:38;0.40;;;0.40;;
35612;SDS011;22054;51.646;7.078;2022-11-27T03:37:05;0.50;;;0.50;;
35612;SDS011;22054;51.646;7.078;2022-11-27T03:39:31;0.50;;;0.50;;
35612;SDS011;22054;51.646;7.078;2022-11-27T03:42:04;0.50;;;0.50;;
35612;SDS011;22054;51.646;7.078;2022-11-27T03:44:53;0.45;;;0.45;;
35612;SDS011;22054;51.646;7.078;2022-11-27T03:53:09;0.50;;;0.50;;
35612;SDS011;22054;51.646;7.078;2022-11-27T03:56:20;0.40;;;0.40;;
35612;SDS011;22054;51.646;7.078;2022-11-27T03:59:03;0.50;;;0.50;;
35612;SDS011;22054;51.646;7.078;2022-11-27T04:01:39;0.50;;;0.50;;
35612;SDS011;22054;51.646;7.078;2022-11-27T04:04:05;0.50;;;0.50;;
35612;SDS011;22054;51.646;7.078;2022-11-27T04:06:31;0.40;;;0.40;;
35612;SDS011;22054;51.646;7.078;2022-11-27T04:08:57;0.50;;;0.50;;
35612;SDS011;22054;51.646;7.078;2022-11-27T04:11:23;0.50;;;0.50;;
35612;SDS011;22054;51.646;7.078;2022-11-27T04:13:49;0.50;;;0.50;;
35612;SDS011;22054;51.646;7.078;2022-11-27T04:16:16;0.50;;;0.50;;
35612;SDS011;22054;51.646;7.078;2022-11-27T04:18:43;0.60;;;0.60;;
35612;SDS011;22054;51.646;7.078;2022-11-27T04:21:09;0.50;;;0.50;;
35612;SDS011;22054;51.646;7.078;2022-11-27T04:23:35;0.47;;;0.47;;
35612;SDS011;22054;51.646;7.078;2022-11-27T04:26:02;0.50;;;0.50;;
35612;SDS011;22054;51.646;7.078;2022-11-27T04:28:29;0.43;;;0.43;;
35612;SDS011;22054;51.646;7.078;2022-11-27T04:30:55;0.55;;;0.55;;
35612;SDS011;22054;51.646;7.078;2022-11-27T04:33:21;0.50;;;0.50;;
35612;SDS011;22054;51.646;7.078;2022-11-27T04:35:47;0.47;;;0.47;;
35612;SDS011;22054;51.646;7.078;2022-11-27T04:38:14;0.50;;;0.50;;
35612;SDS011;22054;51.646;7.078;2022-11-27T04:40:40;0.50;;;0.50;;
35612;SDS011;22054;51.646;7.078;2022-11-27T04:43:06;0.40;;;0.40;;
35612;SDS011;22054;51.646;7.078;2022-11-27T04:45:32;0.40;;;0.40;;
35612;SDS011;22054;51.646;7.078;2022-11-27T04:47:57;0.57;;;0.57;;
35612;SDS011;22054;51.646;7.078;2022-11-27T04:50:26;0.55;;;0.55;;
35612;SDS011;22054;51.646;7.078;2022-11-27T04:52:52;0.47;;;0.47;;
35612;SDS011;22054;51.646;7.078;2022-11-27T04:55:17;0.40;;;0.40;;
35612;SDS011;22054;51.646;7.078;2022-11-27T04:57:43;0.50;;;0.50;;
35612;SDS011;22054;51.646;7.078;2022-11-27T05:00:09;0.40;;;0.40;;
35612;SDS011;22054;51.646;7.078;2022-11-27T05:02:36;0.57;;;0.57;;
35612;SDS011;22054;51.646;7.078;2022-11-27T05:05:02;0.60;;;0.60;;
35612;SDS011;22054;51.646;7.078;2022-11-27T05:07:28;0.65;;;0.65;;
35612;SDS011;22054;51.646;7.078;2022-11-27T05:09:54;0.63;;;0.63;;
35612;SDS011;22054;51.646;7.078;2022-11-27T05:12:19;0.45;;;0.45;;
35612;SDS011;22054;51.646;7.078;2022-11-27T05:14:45;0.40;;;0.40;;
35612;SDS011;22054;51.646;7.078;2022-11-27T05:17:12;0.60;;;0.60;;
35612;SDS011;22054;51.646;7.078;2022-11-27T05:19:38;0.50;;;0.50;;
35612;SDS011;22054;51.646;7.078;2022-11-27T05:22:03;0.50;;;0.50;;
35612;SDS011;22054;51.646;7.078;2022-11-27T05:24:29;0.50;;;0.50;;
35612;SDS011;22054;51.646;7.078;2022-11-27T05:26:55;0.40;;;0.40;;
35612;SDS011;22054;51.646;7.078;2022-11-27T05:29:21;0.50;;;0.50;;
35612;SDS011;22054;51.646;7.078;2022-11-27T05:31:48;0.50;;;0.50;;
35612;SDS011;22054;51.646;7.078;2022-11-27T05:34:14;0.50;;;0.50;;
35612;SDS011;22054;51.646;7.078;2022-11-27T05:36:40;0.60;;;0.60;;
35612;SDS011;22054;51.646;7.078;2022-11-27T05:39:07;0.50;;;0.50;;
35612;SDS011;22054;51.646;7.078;2022-11-27T05:41:35;0.50;;;0.50;;
35612;SDS011;22054;51.646;7.078;2022-11-27T05:44:02;0.50;;;0.50;;
35612;SDS011;22054;51.646;7.078;2022-11-27T05:46:29;0.52;;;0.52;;
35612;SDS011;22054;51.646;7.078;2022-11-27T05:48:55;0.43;;;0.43;;
35612;SDS011;22054;51.646;7.078;2022-11-27T05:51:20;0.40;;;0.40;;
35612;SDS011;22054;51.646;7.078;2022-11-27T05:53:46;0.50;;;0.50;;
35612;SDS011;22054;51.646;7.078;2022-11-27T05:56:13;0.40;;;0.40;;
35612;SDS011;22054;51.646;7.078;2022-11-27T05:58:42;0.40;;;0.40;;
35612;SDS011;22054;51.646;7.078;2022-11-27T06:01:10;0.40;;;0.40;;
35612;SDS011;22054;51.646;7.078;2022-11-27T06:03:38;0.40;;;0.40;;
35612;SDS011;22054;51.646;7.078;2022-11-27T06:06:05;0.40;;;0.40;;
35612;SDS011;22054;51.646;7.078;2022-11-27T06:08:36;0.50;;;0.50;;
35612;SDS011;22054;51.646;7.078;2022-11-27T06:11:06;0.50;;;0.50;;
35612;SDS011;22054;51.646;7.078;2022-11-27T06:13:40;0.50;;;0.50;;
35612;SDS011;22054;51.646;7.078;2022-11-27T06:16:07;0.50;;;0.50;;
35612;SDS011;22054;51.646;7.078;2022-11-27T06:18:39;0.40;;;0.40;;
35612;SDS011;22054;51.646;7.078;2022-11-27T06:21:08;0.57;;;0.57;;
35612;SDS011;22054;51.646;7.078;2022-11-27T06:23:37;0.40;;;0.40;;
35612;SDS011;22054;51.646;7.078;2022-11-27T06:26:13;0.50;;;0.50;;
35612;SDS011;22054;51.646;7.078;2022-11-27T06:28:47;0.40;;;0.40;;
35612;SDS011;22054;51.646;7.078;2022-11-27T06:31:18;0.50;;;0.50;;
35612;SDS011;22054;51.646;7.078;2022-11-27T06:33:46;0.50;;;0.50;;
35612;SDS011;22054;51.646;7.078;2022-11-27T06:36:13;0.40;;;0.40;;
35612;SDS011;22054;51.646;7.078;2022-11-27T06:38:39;0.50;;;0.50;;
35612;SDS011;22054;51.646;7.078;2022-11-27T06:41:07;0.40;;;0.40;;
35612;SDS011;22054;51.646;7.078;2022-11-27T06:43:35;0.40;;;0.40;;
35612;SDS011;22054;51.646;7.078;2022-11-27T06:46:02;0.43;;;0.43;;
35612;SDS011;22054;51.646;7.078;2022-11-27T06:48:29;0.50;;;0.50;;
35612;SDS011;22054;51.646;7.078;2022-11-27T06:51:01;0.40;;;0.40;;
35612;SDS011;22054;51.646;7.078;2022-11-27T06:53:29;0.50;;;0.50;;
35612;SDS011;22054;51.646;7.078;2022-11-27T06:55:57;0.40;;;0.40;;
35612;SDS011;22054;51.646;7.078;2022-11-27T06:58:23;0.50;;;0.50;;
35612;SDS011;22054;51.646;7.078;2022-11-27T07:00:49;0.50;;;0.50;;
35612;SDS011;22054;51.646;7.078;2022-11-27T07:03:22;0.47;;;0.47;;
35612;SDS011;22054;51.646;7.078;2022-11-27T07:05:48;0.40;;;0.40;;
35612;SDS011;22054;51.646;7.078;2022-11-27T07:08:14;0.43;;;0.43;;
35612;SDS011;22054;51.646;7.078;2022-11-27T07:10:40;0.50;;;0.50;;
35612;SDS011;22054;51.646;7.078;2022-11-27T07:13:05;0.40;;;0.40;;
35612;SDS011;22054;51.646;7.078;2022-11-27T07:15:31;0.40;;;0.40;;
35612;SDS011;22054;51.646;7.078;2022-11-27T07:17:57;0.40;;;0.40;;
35612;SDS011;22054;51.646;7.078;2022-11-27T07:20:23;0.40;;;0.40;;
35612;SDS011;22054;51.646;7.078;2022-11-27T07:22:49;0.35;;;0.35;;
35612;SDS011;22054;51.646;7.078;2022-11-27T07:25:15;0.40;;;0.40;;
35612;SDS011;22054;51.646;7.078;2022-11-27T07:27:41;0.50;;;0.50;;
35612;SDS011;22054;51.646;7.078;2022-11-27T07:30:07;0.40;;;0.40;;
35612;SDS011;22054;51.646;7.078;2022-11-27T07:32:42;0.40;;;0.40;;
35612;SDS011;22054;51.646;7.078;2022-11-27T07:35:31;0.40;;;0.40;;
35612;SDS011;22054;51.646;7.078;2022-11-27T07:38:00;0.30;;;0.30;;
35612;SDS011;22054;51.646;7.078;2022-11-27T07:40:26;0.50;;;0.50;;
35612;SDS011;22054;51.646;7.078;2022-11-27T07:42:52;0.47;;;0.47;;
35612;SDS011;22054;51.646;7.078;2022-11-27T07:58:49;0.40;;;0.40;;
35612;SDS011;22054;51.646;7.078;2022-11-27T08:01:16;0.47;;;0.47;;
35612;SDS011;22054;51.646;7.078;2022-11-27T08:04:43;0.40;;;0.40;;
35612;SDS011;22054;51.646;7.078;2022-11-27T08:07:17;0.47;;;0.47;;
35612;SDS011;22054;51.646;7.078;2022-11-27T08:29:11;0.60;;;0.60;;
35612;SDS011;22054;51.646;7.078;2022-11-27T08:50:44;0.40;;;0.40;;
35612;SDS011;22054;51.646;7.078;2022-11-27T08:54:13;0.40;;;0.40;;
35612;SDS011;22054;51.646;7.078;2022-11-27T09:11:35;0.50;;;0.50;;
35612;SDS011;22054;51.646;7.078;2022-11-27T09:14:05;0.40;;;0.40;;
35612;SDS011;22054;51.646;7.078;2022-11-27T09:16:38;0.60;;;0.60;;
35612;SDS011;22054;51.646;7.078;2022-11-27T09:19:38;0.60;;;0.60;;
35612;SDS011;22054;51.646;7.078;2022-11-27T09:26:28;0.40;;;0.40;;
35612;SDS011;22054;51.646;7.078;2022-11-27T09:29:03;0.40;;;0.40;;
35612;SDS011;22054;51.646;7.078;2022-11-27T09:31:29;0.40;;;0.40;;
35612;SDS011;22054;51.646;7.078;2022-11-27T09:33:56;0.50;;;0.50;;
35612;SDS011;22054;51.646;7.078;2022-11-27T09:36:23;0.47;;;0.47;;
35612;SDS011;22054;51.646;7.078;2022-11-27T09:38:51;0.40;;;0.40;;
35612;SDS011;22054;51.646;7.078;2022-11-27T09:43:48;0.40;;;0.40;;
35612;SDS011;22054;51.646;7.078;2022-11-27T09:46:38;0.50;;;0.50;;
35612;SDS011;22054;51.646;7.078;2022-11-27T09:52:35;0.40;;;0.40;;
35612;SDS011;22054;51.646;7.078;2022-11-27T09:55:13;0.40;;;0.40;;
35612;SDS011;22054;51.646;7.078;2022-11-27T09:58:01;0.40;;;0.40;;
35612;SDS011;22054;51.646;7.078;2022-11-27T10:00:34;0.50;;;0.50;;
35612;SDS011;22054;51.646;7.078;2022-11-27T10:03:00;0.50;;;0.50;;
35612;SDS011;22054;51.646;7.078;2022-11-27T10:05:28;0.40;;;0.40;;
35612;SDS011;22054;51.646;7.078;2022-11-27T10:21:52;0.40;;;0.40;;
35612;SDS011;22054;51.646;7.078;2022-11-27T10:24:45;0.40;;;0.40;;
35612;SDS011;22054;51.646;7.078;2022-11-27T10:30:28;0.40;;;0.40;;
35612;SDS011;22054;51.646;7.078;2022-11-27T10:32:57;0.40;;;0.40;;
35612;SDS011;22054;51.646;7.078;2022-11-27T10:35:31;0.40;;;0.40;;
35612;SDS011;22054;51.646;7.078;2022-11-27T10:43:42;0.40;;;0.40;;
35612;SDS011;22054;51.646;7.078;2022-11-27T10:46:15;0.38;;;0.38;;
35612;SDS011;22054;51.646;7.078;2022-11-27T10:48:56;0.50;;;0.50;;
35612;SDS011;22054;51.646;7.078;2022-11-27T10:51:33;0.40;;;0.40;;
35612;SDS011;22054;51.646;7.078;2022-11-27T10:54:04;0.40;;;0.40;;
35612;SDS011;22054;51.646;7.078;2022-11-27T10:56:48;0.40;;;0.40;;
35612;SDS011;22054;51.646;7.078;2022-11-27T11:00:00;0.45;;;0.45;;
35612;SDS011;22054;51.646;7.078;2022-11-27T11:02:33;0.40;;;0.40;;
35612;SDS011;22054;51.646;7.078;2022-11-27T11:05:12;0.30;;;0.30;;
35612;SDS011;22054;51.646;7.078;2022-11-27T11:10:33;0.50;;;0.50;;
35612;SDS011;22054;51.646;7.078;2022-11-27T11:13:17;0.40;;;0.40;;
35612;SDS011;22054;51.646;7.078;2022-11-27T11:18:41;0.30;;;0.30;;
35612;SDS011;22054;51.646;7.078;2022-11-27T11:40:18;0.40;;;0.40;;
35612;SDS011;22054;51.646;7.078;2022-11-27T11:50:54;0.50;;;0.50;;
35612;SDS011;22054;51.646;7.078;2022-11-27T11:58:20;0.45;;;0.45;;
35612;SDS011;22054;51.646;7.078;2022-11-27T12:12:58;0.40;;;0.40;;
35612;SDS011;22054;51.646;7.078;2022-11-27T12:19:09;0.50;;;0.50;;
35612;SDS011;22054;51.646;7.078;2022-11-27T12:31:02;0.60;;;0.60;;
35612;SDS011;22054;51.646;7.078;2022-11-27T12:33:47;0.40;;;0.40;;
35612;SDS011;22054;51.646;7.078;2022-11-27T12:39:13;0.70;;;0.70;;
35612;SDS011;22054;51.646;7.078;2022-11-27T12:42:17;0.60;;;0.60;;
35612;SDS011;22054;51.646;7.078;2022-11-27T12:45:30;0.65;;;0.65;;
35612;SDS011;22054;51.646;7.078;2022-11-27T12:48:11;0.60;;;0.60;;
35612;SDS011;22054;51.646;7.078;2022-11-27T12:51:03;0.57;;;0.57;;
35612;SDS011;22054;51.646;7.078;2022-11-27T12:53:35;0.50;;;0.50;;
35612;SDS011;22054;51.646;7.078;2022-11-27T12:56:34;0.50;;;0.50;;
35612;SDS011;22054;51.646;7.078;2022-11-27T13:02:04;0.60;;;0.60;;
35612;SDS011;22054;51.646;7.078;2022-11-27T13:04:46;0.50;;;0.50;;
35612;SDS011;22054;51.646;7.078;2022-11-27T13:07:17;0.77;;;0.77;;
35612;SDS011;22054;51.646;7.078;2022-11-27T13:10:11;0.65;;;0.65;;
35612;SDS011;22054;51.646;7.078;2022-11-27T13:13:01;0.50;;;0.50;;
35612;SDS011;22054;51.646;7.078;2022-11-27T13:20:48;0.60;;;0.60;;
35612;SDS011;22054;51.646;7.078;2022-11-27T13:23:15;0.50;;;0.50;;
35612;SDS011;22054;51.646;7.078;2022-11-27T13:25:42;0.60;;;0.60;;
35612;SDS011;22054;51.646;7.078;2022-11-27T13:28:20;0.50;;;0.50;;
35612;SDS011;22054;51.646;7.078;2022-11-27T13:30:53;0.50;;;0.50;;
35612;SDS011;22054;51.646;7.078;2022-11-27T13:33:28;0.50;;;0.50;;
35612;SDS011;22054;51.646;7.078;2022-11-27T13:36:54;0.50;;;0.50;;
35612;SDS011;22054;51.646;7.078;2022-11-27T13:39:27;0.50;;;0.50;;
35612;SDS011;22054;51.646;7.078;2022-11-27T13:42:06;0.50;;;0.50;;
35612;SDS011;22054;51.646;7.078;2022-11-27T13:45:00;0.40;;;0.40;;
35612;SDS011;22054;51.646;7.078;2022-11-27T13:47:34;0.40;;;0.40;;
35612;SDS011;22054;51.646;7.078;2022-11-27T13:50:07;0.40;;;0.40;;
35612;SDS011;22054;51.646;7.078;2022-11-27T13:52:36;0.40;;;0.40;;
35612;SDS011;22054;51.646;7.078;2022-11-27T13:55:23;0.50;;;0.50;;
35612;SDS011;22054;51.646;7.078;2022-11-27T13:57:57;0.50;;;0.50;;
35612;SDS011;22054;51.646;7.078;2022-11-27T14:03:06;0.40;;;0.40;;
35612;SDS011;22054;51.646;7.078;2022-11-27T14:05:49;0.50;;;0.50;;
35612;SDS011;22054;51.646;7.078;2022-11-27T14:08:16;0.50;;;0.50;;
35612;SDS011;22054;51.646;7.078;2022-11-27T14:10:56;0.50;;;0.50;;
35612;SDS011;22054;51.646;7.078;2022-11-27T14:13:47;0.40;;;0.40;;
35612;SDS011;22054;51.646;7.078;2022-11-27T14:16:34;0.45;;;0.45;;
35612;SDS011;22054;51.646;7.078;2022-11-27T14:19:19;0.50;;;0.50;;
35612;SDS011;22054;51.646;7.078;2022-11-27T14:21:52;0.50;;;0.50;;
35612;SDS011;22054;51.646;7.078;2022-11-27T14:24:22;0.40;;;0.40;;
35612;SDS011;22054;51.646;7.078;2022-11-27T14:27:18;0.40;;;0.40;;
35612;SDS011;22054;51.646;7.078;2022-11-27T14:29:47;0.50;;;0.50;;
35612;SDS011;22054;51.646;7.078;2022-11-27T14:32:14;0.30;;;0.30;;
35612;SDS011;22054;51.646;7.078;2022-11-27T14:34:45;0.40;;;0.40;;
35612;SDS011;22054;51.646;7.078;2022-11-27T14:37:32;0.50;;;0.50;;
35612;SDS011;22054;51.646;7.078;2022-11-27T14:39:58;0.40;;;0.40;;
35612;SDS011;22054;51.646;7.078;2022-11-27T14:42:25;0.40;;;0.40;;
35612;SDS011;22054;51.646;7.078;2022-11-27T14:45:06;0.47;;;0.47;;
35612;SDS011;22054;51.646;7.078;2022-11-27T14:47:38;0.40;;;0.40;;
35612;SDS011;22054;51.646;7.078;2022-11-27T14:50:12;0.50;;;0.50;;
35612;SDS011;22054;51.646;7.078;2022-11-27T14:52:40;0.40;;;0.40;;
35612;SDS011;22054;51.646;7.078;2022-11-27T14:55:14;0.30;;;0.30;;
35612;SDS011;22054;51.646;7.078;2022-11-27T14:57:41;0.40;;;0.40;;
35612;SDS011;22054;51.646;7.078;2022-11-27T15:02:51;0.40;;;0.40;;
35612;SDS011;22054;51.646;7.078;2022-11-27T15:05:30;0.50;;;0.50;;
35612;SDS011;22054;51.646;7.078;2022-11-27T15:08:03;0.40;;;0.40;;
35612;SDS011;22054;51.646;7.078;2022-11-27T15:10:39;0.40;;;0.40;;
35612;SDS011;22054;51.646;7.078;2022-11-27T15:13:17;0.40;;;0.40;;
35612;SDS011;22054;51.646;7.078;2022-11-27T15:15:55;0.40;;;0.40;;
35612;SDS011;22054;51.646;7.078;2022-11-27T15:18:26;0.40;;;0.40;;
35612;SDS011;22054;51.646;7.078;2022-11-27T15:20:53;0.32;;;0.32;;
35612;SDS011;22054;51.646;7.078;2022-11-27T15:23:28;0.40;;;0.40;;
35612;SDS011;22054;51.646;7.078;2022-11-27T15:29:21;0.40;;;0.40;;
35612;SDS011;22054;51.646;7.078;2022-11-27T15:31:29;0.45;;;0.45;;
35612;SDS011;22054;51.646;7.078;2022-11-27T15:34:03;0.35;;;0.35;;
35612;SDS011;22054;51.646;7.078;2022-11-27T15:36:42;0.40;;;0.40;;
35612;SDS011;22054;51.646;7.078;2022-11-27T15:39:14;0.30;;;0.30;;
35612;SDS011;22054;51.646;7.078;2022-11-27T15:41:50;0.30;;;0.30;;
35612;SDS011;22054;51.646;7.078;2022-11-27T15:44:28;0.30;;;0.30;;
35612;SDS011;22054;51.646;7.078;2022-11-27T15:46:56;0.30;;;0.30;;
35612;SDS011;22054;51.646;7.078;2022-11-27T15:49:25;0.40;;;0.40;;
35612;SDS011;22054;51.646;7.078;2022-11-27T15:51:51;0.40;;;0.40;;
35612;SDS011;22054;51.646;7.078;2022-11-27T15:54:19;0.30;;;0.30;;
35612;SDS011;22054;51.646;7.078;2022-11-27T15:56:44;0.40;;;0.40;;
35612;SDS011;22054;51.646;7.078;2022-11-27T15:59:11;0.40;;;0.40;;
35612;SDS011;22054;51.646;7.078;2022-11-27T16:01:38;0.43;;;0.43;;
35612;SDS011;22054;51.646;7.078;2022-11-27T16:04:04;0.40;;;0.40;;
35612;SDS011;22054;51.646;7.078;2022-11-27T16:06:30;0.30;;;0.30;;
35612;SDS011;22054;51.646;7.078;2022-11-27T16:08:56;0.30;;;0.30;;
35612;SDS011;22054;51.646;7.078;2022-11-27T16:11:25;0.30;;;0.30;;
35612;SDS011;22054;51.646;7.078;2022-11-27T16:13:53;0.30;;;0.30;;
35612;SDS011;22054;51.646;7.078;2022-11-27T16:16:19;0.30;;;0.30;;
35612;SDS011;22054;51.646;7.078;2022-11-27T16:18:45;0.30;;;0.30;;
35612;SDS011;22054;51.646;7.078;2022-11-27T16:21:12;0.30;;;0.30;;
35612;SDS011;22054;51.646;7.078;2022-11-27T16:23:39;0.30;;;0.30;;
35612;SDS011;22054;51.646;7.078;2022-11-27T16:26:06;0.30;;;0.30;;
35612;SDS011;22054;51.646;7.078;2022-11-27T16:28:35;0.30;;;0.30;;
35612;SDS011;22054;51.646;7.078;2022-11-27T16:31:01;0.30;;;0.30;;
35612;SDS011;22054;51.646;7.078;2022-11-27T16:33:32;0.30;;;0.30;;
35612;SDS011;22054;51.646;7.078;2022-11-27T16:36:08;0.30;;;0.30;;
35612;SDS011;22054;51.646;7.078;2022-11-27T16:38:37;0.30;;;0.30;;
35612;SDS011;22054;51.646;7.078;2022-11-27T16:41:04;0.30;;;0.30;;
35612;SDS011;22054;51.646;7.078;2022-11-27T16:43:33;0.30;;;0.30;;
35612;SDS011;22054;51.646;7.078;2022-11-27T16:46:11;0.30;;;0.30;;
35612;SDS011;22054;51.646;7.078;2022-11-27T16:48:40;0.30;;;0.30;;
35612;SDS011;22054;51.646;7.078;2022-11-27T16:51:26;0.30;;;0.30;;
35612;SDS011;22054;51.646;7.078;2022-11-27T16:53:56;0.30;;;0.30;;
35612;SDS011;22054;51.646;7.078;2022-11-27T16:56:23;0.30;;;0.30;;
35612;SDS011;22054;51.646;7.078;2022-11-27T16:58:53;0.32;;;0.32;;
35612;SDS011;22054;51.646;7.078;2022-11-27T17:01:27;0.40;;;0.40;;
35612;SDS011;22054;51.646;7.078;2022-11-27T17:03:56;0.30;;;0.30;;
35612;SDS011;22054;51.646;7.078;2022-11-27T17:06:26;0.20;;;0.20;;
35612;SDS011;22054;51.646;7.078;2022-11-27T17:11:23;0.20;;;0.20;;
35612;SDS011;22054;51.646;7.078;2022-11-27T17:13:51;0.30;;;0.30;;
35612;SDS011;22054;51.646;7.078;2022-11-27T17:16:21;0.30;;;0.30;;
35612;SDS011;22054;51.646;7.078;2022-11-27T17:18:46;0.30;;;0.30;;
35612;SDS011;22054;51.646;7.078;2022-11-27T17:21:13;0.30;;;0.30;;
35612;SDS011;22054;51.646;7.078;2022-11-27T17:23:48;0.30;;;0.30;;
35612;SDS011;22054;51.646;7.078;2022-11-27T17:26:17;0.30;;;0.30;;
35612;SDS011;22054;51.646;7.078;2022-11-27T17:28:45;0.30;;;0.30;;
35612;SDS011;22054;51.646;7.078;2022-11-27T17:31:13;0.30;;;0.30;;
35612;SDS011;22054;51.646;7.078;2022-11-27T17:33:41;0.30;;;0.30;;
35612;SDS011;22054;51.646;7.078;2022-11-27T17:36:07;0.30;;;0.30;;
35612;SDS011;22054;51.646;7.078;2022-11-27T17:38:33;0.30;;;0.30;;
35612;SDS011;22054;51.646;7.078;2022-11-27T17:41:00;0.40;;;0.40;;
35612;SDS011;22054;51.646;7.078;2022-11-27T17:43:32;0.40;;;0.40;;
35612;SDS011;22054;51.646;7.078;2022-11-27T17:45:59;0.30;;;0.30;;
35612;SDS011;22054;51.646;7.078;2022-11-27T17:48:25;0.40;;;0.40;;
35612;SDS011;22054;51.646;7.078;2022-11-27T17:50:52;0.30;;;0.30;;
35612;SDS011;22054;51.646;7.078;2022-11-27T17:53:18;0.32;;;0.32;;
35612;SDS011;22054;51.646;7.078;2022-11-27T17:55:44;0.40;;;0.40;;
35612;SDS011;22054;51.646;7.078;2022-11-27T17:58:10;0.30;;;0.30;;
35612;SDS011;22054;51.646;7.078;2022-11-27T18:00:36;0.40;;;0.40;;
35612;SDS011;22054;51.646;7.078;2022-11-27T18:03:03;0.40;;;0.40;;
35612;SDS011;22054;51.646;7.078;2022-11-27T18:05:29;0.40;;;0.40;;
35612;SDS011;22054;51.646;7.078;2022-11-27T18:07:55;0.40;;;0.40;;
35612;SDS011;22054;51.646;7.078;2022-11-27T18:10:23;0.40;;;0.40;;
35612;SDS011;22054;51.646;7.078;2022-11-27T18:12:49;0.30;;;0.30;;
35612;SDS011;22054;51.646;7.078;2022-11-27T18:15:14;0.38;;;0.38;;
35612;SDS011;22054;51.646;7.078;2022-11-27T18:17:40;0.40;;;0.40;;
35612;SDS011;22054;51.646;7.078;2022-11-27T18:20:06;0.40;;;0.40;;
35612;SDS011;22054;51.646;7.078;2022-11-27T18:22:32;0.32;;;0.32;;
35612;SDS011;22054;51.646;7.078;2022-11-27T18:24:58;0.40;;;0.40;;
35612;SDS011;22054;51.646;7.078;2022-11-27T18:27:25;0.32;;;0.32;;
35612;SDS011;22054;51.646;7.078;2022-11-27T18:29:51;0.40;;;0.40;;
35612;SDS011;22054;51.646;7.078;2022-11-27T18:32:17;0.40;;;0.40;;
35612;SDS011;22054;51.646;7.078;2022-11-27T18:34:43;0.43;;;0.43;;
35612;SDS011;22054;51.646;7.078;2022-11-27T18:37:10;0.40;;;0.40;;
35612;SDS011;22054;51.646;7.078;2022-11-27T18:39:37;0.40;;;0.40;;
35612;SDS011;22054;51.646;7.078;2022-11-27T18:42:04;0.30;;;0.30;;
35612;SDS011;22054;51.646;7.078;2022-11-27T18:44:32;0.40;;;0.40;;
35612;SDS011;22054;51.646;7.078;2022-11-27T18:46:58;0.32;;;0.32;;
35612;SDS011;22054;51.646;7.078;2022-11-27T18:49:24;0.30;;;0.30;;
35612;SDS011;22054;51.646;7.078;2022-11-27T18:51:50;0.40;;;0.40;;
35612;SDS011;22054;51.646;7.078;2022-11-27T18:54:18;0.40;;;0.40;;
35612;SDS011;22054;51.646;7.078;2022-11-27T18:56:45;0.40;;;0.40;;
35612;SDS011;22054;51.646;7.078;2022-11-27T18:59:11;0.40;;;0.40;;